map of PNT home
PNT - Airport
Location
City:  Puerto Natales, Magallanes y de la Antártica Chilena, Chile
Name:Teniente Julio Gallardo
ICAO:SCNT
IATA:PNT

Details
Type:Airport (Aerodrome, Airfield)
Latitude:51°40'17"S (-51.671474)
Longitude:72°31'42"W (-72.528349)
Datum:WGS 1984
Elevation:217 ft (66 m)
Variation:13.64°E (WMM2015 magnetic declination)
-0.08° annual change
Runways:1
Longest:5786 × 98 ft (1764 × 30 m), paved

Time
Time Zone:UTC-4 (DST-3)
Local Time:

Weather
METAR:SCNT 191300Z 32023KT 9999 -SHRA FEW030 BKN040 11/03 Q0984
TAF:SCNT 191021Z 1912/2000 29020G30KT 9999 FEW025 SCT045 TN08/1912Z TX12/1919Z
BECMG 1913/1915 9000 -SHRA SCT035
TEMPO 1915/1919 27028G40KT 7000 SCT015 BKN025TCU

Related Locations
Nearby:
Farthest:UUD: 12436 mi / 20015 km
Ulan-Ude [Baikal Intl (Mukhino Airport)], BU, RU

Find:

   beyond  
but within

Other Information
Maps:
NOTAMs:
Links:
Sources:

  
  • flag of Chile
  • flag of Magallanes y de la Antártica Chilena
  

Sectional Chart

Flight Planning
at skyvector.com

Satellite Image

Google Maps Satellite view

 

Copyright © 2004-2018 Karl L. Swartz. All rights reserved.
The Great Circle Mapper name and logo are trademarks of the Great Circle Mapper.
All other trademarks mentioned herein belong to their respective owners.
Please see credits for attibutions and further copyright information.

  Follow gcmap on Facebook Follow gcmap on Twitter Follow gcmap on Google+ GCmap on LinkedIn

hCard Microformat

Geo Microformat